Time;durP1;ratioP1;P1;durP2;ratioP2;P2;SDS_P1;SDS_P2;PMS_P1;PMS_P2;Temp;Humidity;BMP_temperature;BMP_pressure;BME280_temperature;BME280_humidity;BME280_pressure;Samples;Min_cycle;Max_cycle;Signal;HPM_P1;HPM_P2
2022/09/16 00:04:37;;;;;;;0.00;0.00;;;;;;;;;;10388038;28;20215;-74
2022/09/16 00:09:38;;;;;;;0.08;0.08;;;;;;;;;;10392679;28;20989;-76
2022/09/16 00:14:39;;;;;;;0.00;0.00;;;;;;;;;;10395560;28;20223;-76
2022/09/16 00:19:40;;;;;;;0.00;0.00;;;;;;;;;;10384851;28;20598;-76
2022/09/16 00:24:42;;;;;;;0.08;0.08;;;;;;;;;;10377406;28;20219;-75
2022/09/16 00:29:43;;;;;;;0.00;0.00;;;;;;;;;;10397663;28;20215;-75
2022/09/16 00:34:44;;;;;;;0.00;0.00;;;;;;;;;;10394989;28;20227;-75
2022/09/16 00:39:47;;;;;;;0.00;0.00;;;;;;;;;;10401081;28;20221;-76
2022/09/16 00:44:53;;;;;;;0.00;0.00;;;;;;;;;;10395339;28;20316;-75
2022/09/16 00:49:56;;;;;;;0.17;0.17;;;;;;;;;;10392056;28;20227;-75
2022/09/16 00:54:57;;;;;;;0.85;0.10;;;;;;;;;;10394140;28;20637;-75
2022/09/16 00:59:59;;;;;;;0.00;0.00;;;;;;;;;;10371516;28;20965;-79
2022/09/16 01:05:02;;;;;;;13.35;0.68;;;;;;;;;;10403544;28;20208;-76
2022/09/16 01:10:03;;;;;;;0.03;0.03;;;;;;;;;;10403030;28;21038;-75
2022/09/16 01:15:05;;;;;;;0.00;0.00;;;;;;;;;;10401441;28;20231;-75
2022/09/16 01:20:09;;;;;;;0.08;0.08;;;;;;;;;;10408470;28;20220;-75
2022/09/16 01:25:20;;;;;;;0.00;0.00;;;;;;;;;;10408431;28;20675;-75
2022/09/16 01:30:40;;;;;;;0.05;0.05;;;;;;;;;;10404231;28;20187;-75
2022/09/16 01:35:57;;;;;;;0.00;0.00;;;;;;;;;;10402913;28;20632;-76
2022/09/16 01:41:16;;;;;;;0.03;0.03;;;;;;;;;;10398120;28;20246;-74
2022/09/16 01:46:22;;;;;;;0.00;0.00;;;;;;;;;;10407769;28;20253;-76
2022/09/16 01:51:33;;;;;;;0.00;0.00;;;;;;;;;;10373752;28;20207;-76
2022/09/16 01:56:52;;;;;;;0.00;0.00;;;;;;;;;;10377413;28;20228;-75
2022/09/16 02:02:04;;;;;;;0.10;0.10;;;;;;;;;;10360721;28;20212;-76
2022/09/16 02:07:07;;;;;;;0.05;0.05;;;;;;;;;;10391365;28;20220;-76
2022/09/16 02:12:12;;;;;;;0.52;0.20;;;;;;;;;;10395128;28;20214;-76
2022/09/16 02:17:15;;;;;;;0.00;0.00;;;;;;;;;;10403251;28;20246;-75
2022/09/16 02:22:18;;;;;;;1.75;1.65;;;;;;;;;;10401340;28;20290;-74
2022/09/16 02:27:21;;;;;;;0.00;0.00;;;;;;;;;;10402497;28;20233;-76
2022/09/16 02:32:23;;;;;;;0.05;0.05;;;;;;;;;;10402104;28;20217;-75
2022/09/16 02:37:33;;;;;;;0.10;0.10;;;;;;;;;;10409195;28;20409;-75
2022/09/16 02:42:34;;;;;;;0.00;0.00;;;;;;;;;;10402175;28;20253;-74
2022/09/16 02:47:44;;;;;;;0.00;0.00;;;;;;;;;;10400922;28;20222;-75
2022/09/16 02:52:56;;;;;;;0.00;0.00;;;;;;;;;;10375852;28;20215;-75
2022/09/16 02:57:57;;;;;;;0.32;0.32;;;;;;;;;;10394108;28;20216;-75
2022/09/16 03:02:58;;;;;;;0.85;0.08;;;;;;;;;;10393322;28;20215;-76
2022/09/16 03:08:02;;;;;;;0.40;0.40;;;;;;;;;;10397411;28;20321;-75
2022/09/16 03:13:22;;;;;;;0.00;0.00;;;;;;;;;;10378789;28;20747;-75
2022/09/16 03:18:41;;;;;;;0.00;0.00;;;;;;;;;;10396216;28;20214;-75
2022/09/16 03:23:46;;;;;;;0.10;0.10;;;;;;;;;;10396261;28;20215;-76
2022/09/16 03:28:59;;;;;;;0.00;0.00;;;;;;;;;;10399176;28;20290;-75
2022/09/16 03:34:06;;;;;;;0.10;0.10;;;;;;;;;;10372287;28;20219;-75
2022/09/16 03:39:09;;;;;;;0.10;0.10;;;;;;;;;;10396965;28;20218;-76
2022/09/16 03:44:10;;;;;;;0.20;0.20;;;;;;;;;;10362183;28;20207;-74
2022/09/16 03:49:12;;;;;;;0.10;0.10;;;;;;;;;;10401697;28;21071;-75
2022/09/16 03:54:13;;;;;;;0.00;0.00;;;;;;;;;;10392406;28;20288;-75
2022/09/16 03:59:14;;;;;;;0.03;0.03;;;;;;;;;;10403082;28;20261;-75
2022/09/16 04:04:15;;;;;;;0.00;0.00;;;;;;;;;;10393984;28;20687;-76
2022/09/16 04:09:16;;;;;;;0.00;0.00;;;;;;;;;;10389088;28;20234;-75
2022/09/16 04:14:17;;;;;;;3.25;0.55;;;;;;;;;;10385137;28;20785;-76
2022/09/16 04:19:18;;;;;;;0.10;0.10;;;;;;;;;;10388507;28;20252;-76
2022/09/16 04:24:19;;;;;;;0.00;0.00;;;;;;;;;;10368238;28;20342;-75
2022/09/16 04:29:20;;;;;;;0.10;0.10;;;;;;;;;;10395033;28;20678;-76
2022/09/16 04:34:21;;;;;;;0.05;0.05;;;;;;;;;;10387205;28;20242;-76
2022/09/16 04:39:22;;;;;;;0.00;0.00;;;;;;;;;;10388068;28;20222;-75
2022/09/16 04:44:25;;;;;;;0.00;0.00;;;;;;;;;;10390774;28;20245;-75
2022/09/16 04:49:26;;;;;;;0.10;0.10;;;;;;;;;;10385299;28;20816;-75
2022/09/16 04:54:27;;;;;;;0.00;0.00;;;;;;;;;;10393123;28;20223;-76
2022/09/16 04:59:28;;;;;;;0.00;0.00;;;;;;;;;;10393518;28;20223;-75
2022/09/16 05:04:29;;;;;;;0.00;0.00;;;;;;;;;;10389043;28;20746;-75
2022/09/16 05:09:30;;;;;;;0.00;0.00;;;;;;;;;;10387535;28;21009;-75
2022/09/16 05:14:31;;;;;;;0.00;0.00;;;;;;;;;;10385984;28;20230;-74
2022/09/16 05:19:32;;;;;;;0.10;0.10;;;;;;;;;;10392554;28;20251;-75
2022/09/16 05:24:35;;;;;;;0.00;0.00;;;;;;;;;;10382404;28;20314;-74
2022/09/16 05:29:36;;;;;;;0.13;0.13;;;;;;;;;;10379950;28;20223;-74
2022/09/16 05:34:37;;;;;;;0.08;0.08;;;;;;;;;;10376212;28;20721;-74
2022/09/16 05:39:38;;;;;;;0.00;0.00;;;;;;;;;;10382856;28;20223;-76
2022/09/16 05:44:39;;;;;;;0.10;0.10;;;;;;;;;;10386332;28;20285;-78
2022/09/16 05:49:40;;;;;;;0.10;0.10;;;;;;;;;;10379582;28;20204;-74
2022/09/16 05:54:41;;;;;;;0.00;0.00;;;;;;;;;;10394585;28;20231;-75
2022/09/16 05:59:42;;;;;;;0.10;0.10;;;;;;;;;;10380431;28;20717;-75
2022/09/16 06:04:43;;;;;;;0.13;0.13;;;;;;;;;;10384781;28;20225;-75
2022/09/16 06:09:45;;;;;;;0.00;0.00;;;;;;;;;;10374471;28;20250;-75
2022/09/16 06:14:46;;;;;;;0.30;0.30;;;;;;;;;;10336540;28;20368;-76
2022/09/16 06:19:47;;;;;;;0.03;0.03;;;;;;;;;;10386828;28;20231;-77
2022/09/16 06:24:48;;;;;;;0.70;0.17;;;;;;;;;;10352792;28;20245;-76
2022/09/16 06:29:49;;;;;;;0.40;0.40;;;;;;;;;;10384585;28;20310;-75
2022/09/16 06:34:51;;;;;;;0.03;0.03;;;;;;;;;;10368170;28;20261;-76
2022/09/16 06:39:52;;;;;;;0.25;0.25;;;;;;;;;;10390229;28;20228;-76
2022/09/16 06:44:53;;;;;;;0.00;0.00;;;;;;;;;;10380220;28;20225;-76
2022/09/16 06:49:54;;;;;;;0.10;0.10;;;;;;;;;;10360480;28;20226;-75
2022/09/16 06:54:55;;;;;;;0.20;0.20;;;;;;;;;;10377336;28;20766;-76
2022/09/16 06:59:56;;;;;;;0.43;0.10;;;;;;;;;;10378201;28;20245;-75
2022/09/16 07:04:57;;;;;;;0.10;0.10;;;;;;;;;;10367598;28;20870;-75
2022/09/16 07:09:58;;;;;;;0.10;0.10;;;;;;;;;;10363386;28;20240;-75
2022/09/16 07:14:59;;;;;;;0.00;0.00;;;;;;;;;;10370707;28;21071;-75
2022/09/16 07:20:00;;;;;;;0.10;0.10;;;;;;;;;;10372334;28;20227;-75
2022/09/16 07:25:01;;;;;;;0.10;0.10;;;;;;;;;;10382916;28;20215;-76
2022/09/16 07:30:02;;;;;;;2.28;0.25;;;;;;;;;;10400661;28;20215;-76
2022/09/16 07:35:04;;;;;;;0.35;0.32;;;;;;;;;;10401111;28;20211;-76
2022/09/16 07:40:05;;;;;;;0.28;0.28;;;;;;;;;;10391795;28;20245;-75
2022/09/16 07:45:06;;;;;;;0.52;0.52;;;;;;;;;;10392930;28;20307;-75
2022/09/16 07:50:07;;;;;;;0.00;0.00;;;;;;;;;;10386862;28;20184;-76
2022/09/16 07:55:09;;;;;;;0.20;0.20;;;;;;;;;;10372134;28;20307;-76
2022/09/16 08:00:11;;;;;;;0.10;0.10;;;;;;;;;;10371758;28;20207;-76
2022/09/16 08:05:12;;;;;;;0.00;0.00;;;;;;;;;;10378433;28;20306;-75
2022/09/16 08:10:13;;;;;;;0.00;0.00;;;;;;;;;;10387208;28;20226;-75
2022/09/16 08:15:14;;;;;;;0.00;0.00;;;;;;;;;;10389547;28;20266;-75
2022/09/16 08:20:15;;;;;;;0.20;0.20;;;;;;;;;;10391809;28;20301;-75
2022/09/16 08:25:16;;;;;;;0.00;0.00;;;;;;;;;;10422146;28;20198;-76
2022/09/16 08:30:17;;;;;;;0.10;0.10;;;;;;;;;;10424371;28;20192;-77
2022/09/16 08:35:19;;;;;;;0.10;0.10;;;;;;;;;;10399473;28;20280;-76
2022/09/16 08:40:22;;;;;;;0.10;0.10;;;;;;;;;;10413797;28;20211;-78
2022/09/16 08:45:23;;;;;;;0.00;0.00;;;;;;;;;;10409352;28;20208;-76
2022/09/16 08:50:26;;;;;;;0.00;0.00;;;;;;;;;;10416663;28;20731;-77
2022/09/16 08:55:30;;;;;;;0.00;0.00;;;;;;;;;;10412536;28;20229;-77
2022/09/16 09:00:32;;;;;;;0.05;0.05;;;;;;;;;;10406080;28;20249;-76
2022/09/16 09:05:40;;;;;;;0.00;0.00;;;;;;;;;;10419192;28;20226;-77
2022/09/16 09:10:59;;;;;;;0.10;0.10;;;;;;;;;;10419306;28;20231;-76
2022/09/16 09:16:16;;;;;;;0.10;0.10;;;;;;;;;;10391386;28;20229;-76
2022/09/16 09:21:34;;;;;;;0.10;0.10;;;;;;;;;;10393472;28;20227;-77
2022/09/16 09:26:46;;;;;;;0.00;0.00;;;;;;;;;;10407403;28;20215;-76
2022/09/16 09:31:47;;;;;;;0.10;0.10;;;;;;;;;;10406081;28;20312;-77
2022/09/16 09:37:01;;;;;;;0.03;0.03;;;;;;;;;;10409024;28;20226;-81
2022/09/16 09:42:10;;;;;;;0.00;0.00;;;;;;;;;;10391380;28;20207;-82
2022/09/16 09:47:13;;;;;;;0.00;0.00;;;;;;;;;;10392257;28;20749;-80
2022/09/16 09:52:30;;;;;;;0.00;0.00;;;;;;;;;;10396333;28;20231;-82
2022/09/16 09:57:37;;;;;;;0.00;0.00;;;;;;;;;;10407135;28;20218;-80
2022/09/16 10:02:42;;;;;;;0.13;0.13;;;;;;;;;;10403990;28;20496;-81
2022/09/16 10:07:43;;;;;;;0.10;0.10;;;;;;;;;;10383754;28;20868;-81
2022/09/16 10:12:44;;;;;;;0.15;0.15;;;;;;;;;;10400662;28;20219;-82
2022/09/16 10:17:48;;;;;;;0.00;0.00;;;;;;;;;;10402029;28;20215;-81
2022/09/16 10:23:00;;;;;;;1.45;0.38;;;;;;;;;;10418329;28;20249;-81
2022/09/16 10:28:02;;;;;;;0.00;0.00;;;;;;;;;;10393567;28;20342;-80
2022/09/16 10:33:11;;;;;;;0.13;0.13;;;;;;;;;;10347975;28;20211;-80
2022/09/16 10:38:12;;;;;;;0.00;0.00;;;;;;;;;;10383935;28;20585;-80
2022/09/16 10:43:14;;;;;;;0.00;0.00;;;;;;;;;;10376043;28;20538;-80
2022/09/16 10:48:17;;;;;;;0.20;0.20;;;;;;;;;;10383534;28;20217;-80
2022/09/16 10:53:35;;;;;;;0.22;0.17;;;;;;;;;;10376171;28;20215;-80
2022/09/16 10:58:36;;;;;;;0.10;0.10;;;;;;;;;;10380858;28;20286;-81
2022/09/16 11:03:40;;;;;;;0.00;0.00;;;;;;;;;;10376604;28;20207;-81
2022/09/16 11:08:44;;;;;;;0.20;0.00;;;;;;;;;;10382883;28;20243;-80
2022/09/16 11:13:48;;;;;;;0.00;0.00;;;;;;;;;;10410322;28;20277;-80
2022/09/16 11:18:55;;;;;;;0.00;0.00;;;;;;;;;;10396123;28;20479;-79
2022/09/16 11:24:15;;;;;;;0.00;0.00;;;;;;;;;;10408574;28;20234;-80
2022/09/16 11:29:19;;;;;;;0.00;0.00;;;;;;;;;;10389738;28;20314;-80
2022/09/16 11:34:20;;;;;;;0.00;0.00;;;;;;;;;;10405811;28;20217;-82
2022/09/16 11:39:39;;;;;;;0.00;0.00;;;;;;;;;;10383328;28;20220;-84
2022/09/16 11:44:47;;;;;;;0.00;0.00;;;;;;;;;;10402373;28;20306;-82
2022/09/16 11:50:07;;;;;;;0.00;0.00;;;;;;;;;;10395599;28;20229;-81
2022/09/16 11:55:19;;;;;;;0.00;0.00;;;;;;;;;;10410825;28;21306;-80
2022/09/16 12:00:20;;;;;;;0.00;0.00;;;;;;;;;;10408627;28;20207;-80
2022/09/16 12:05:24;;;;;;;0.00;0.00;;;;;;;;;;10426290;28;20212;-81
2022/09/16 12:10:28;;;;;;;0.00;0.00;;;;;;;;;;10422682;28;20266;-80
2022/09/16 12:15:33;;;;;;;1.17;0.90;;;;;;;;;;10406813;28;20214;-81
2022/09/16 12:20:37;;;;;;;0.00;0.00;;;;;;;;;;10415620;28;20296;-80
2022/09/16 12:25:59;;;;;;;0.43;0.38;;;;;;;;;;10424532;28;20397;-81
2022/09/16 12:31:05;;;;;;;0.00;0.00;;;;;;;;;;10416808;28;20850;-81
2022/09/16 12:36:08;;;;;;;0.00;0.00;;;;;;;;;;10427867;28;20219;-80
2022/09/16 12:41:14;;;;;;;0.00;0.00;;;;;;;;;;10421739;28;20246;-80
2022/09/16 12:46:18;;;;;;;0.00;0.00;;;;;;;;;;10380198;28;20216;-80
2022/09/16 12:51:27;;;;;;;0.00;0.00;;;;;;;;;;10423786;28;20207;-79
2022/09/16 12:56:31;;;;;;;0.00;0.00;;;;;;;;;;10431635;28;20227;-80
2022/09/16 13:01:32;;;;;;;4.38;0.57;;;;;;;;;;10435878;28;20218;-78
2022/09/16 13:06:36;;;;;;;0.20;0.20;;;;;;;;;;10421983;28;20318;-82
2022/09/16 13:11:39;;;;;;;0.00;0.00;;;;;;;;;;10437638;28;20215;-81
2022/09/16 13:16:40;;;;;;;1.10;0.20;;;;;;;;;;10441662;28;20219;-81
2022/09/16 13:21:43;;;;;;;0.00;0.00;;;;;;;;;;10417061;28;20215;-82
2022/09/16 13:26:44;;;;;;;0.00;0.00;;;;;;;;;;10406724;28;20282;-81
2022/09/16 13:31:46;;;;;;;0.00;0.00;;;;;;;;;;10443394;28;20529;-81
2022/09/16 13:36:47;;;;;;;0.00;0.00;;;;;;;;;;10410208;28;20231;-80
2022/09/16 13:41:48;;;;;;;0.00;0.00;;;;;;;;;;10410081;28;20243;-79
2022/09/16 13:46:49;;;;;;;0.00;0.00;;;;;;;;;;10414132;28;20206;-81
2022/09/16 13:51:51;;;;;;;0.00;0.00;;;;;;;;;;10425430;28;20230;-82
2022/09/16 13:57:11;;;;;;;0.00;0.00;;;;;;;;;;10426130;28;20219;-81
2022/09/16 14:02:12;;;;;;;0.70;0.00;;;;;;;;;;10425301;28;20896;-81
2022/09/16 14:07:22;;;;;;;0.00;0.00;;;;;;;;;;10424314;28;20238;-81
2022/09/16 14:12:27;;;;;;;0.00;0.00;;;;;;;;;;10416330;28;20195;-82
2022/09/16 14:17:36;;;;;;;1.05;1.05;;;;;;;;;;10435043;28;20222;-83
2022/09/16 14:22:37;;;;;;;0.00;0.00;;;;;;;;;;10427914;28;20219;-82
2022/09/16 14:27:39;;;;;;;0.00;0.00;;;;;;;;;;10420526;28;20272;-81
2022/09/16 14:32:40;;;;;;;0.00;0.00;;;;;;;;;;10399770;28;20228;-82
2022/09/16 14:37:43;;;;;;;0.00;0.00;;;;;;;;;;10445229;28;20227;-83
2022/09/16 14:43:02;;;;;;;1.17;0.40;;;;;;;;;;10440512;28;20211;-82
2022/09/16 14:48:06;;;;;;;0.00;0.00;;;;;;;;;;10390475;28;20643;-80
2022/09/16 14:53:22;;;;;;;8.75;0.75;;;;;;;;;;10412478;28;20215;-81
2022/09/16 14:58:25;;;;;;;0.03;0.03;;;;;;;;;;10416990;28;20202;-83
2022/09/16 15:03:29;;;;;;;0.00;0.00;;;;;;;;;;10441832;28;20257;-81
2022/09/16 15:08:38;;;;;;;0.00;0.00;;;;;;;;;;10399073;28;20250;-80
2022/09/16 15:13:40;;;;;;;0.10;0.10;;;;;;;;;;10418391;28;20219;-82
2022/09/16 15:18:51;;;;;;;0.45;0.45;;;;;;;;;;10380349;28;20764;-80
2022/09/16 15:23:54;;;;;;;0.00;0.00;;;;;;;;;;10402294;28;20215;-82
2022/09/16 15:28:56;;;;;;;0.00;0.00;;;;;;;;;;10366319;28;20250;-81
2022/09/16 15:33:58;;;;;;;1.17;0.47;;;;;;;;;;10389093;28;20226;-81
2022/09/16 15:38:59;;;;;;;1.83;0.50;;;;;;;;;;10409700;28;20306;-81
2022/09/16 15:44:00;;;;;;;5.10;0.13;;;;;;;;;;10375274;28;20211;-82
2022/09/16 15:49:02;;;;;;;0.17;0.17;;;;;;;;;;10411798;28;20218;-80
2022/09/16 15:54:15;;;;;;;0.00;0.00;;;;;;;;;;10406077;28;20218;-81
2022/09/16 15:59:29;;;;;;;0.25;0.25;;;;;;;;;;10377928;28;20215;-81
2022/09/16 16:04:31;;;;;;;0.00;0.00;;;;;;;;;;10372925;28;20204;-80
2022/09/16 16:09:34;;;;;;;0.00;0.00;;;;;;;;;;10390429;28;20787;-81
2022/09/16 16:14:36;;;;;;;0.00;0.00;;;;;;;;;;10404859;28;20219;-81
2022/09/16 16:19:37;;;;;;;0.13;0.10;;;;;;;;;;10395305;28;20305;-81
2022/09/16 16:24:39;;;;;;;0.00;0.00;;;;;;;;;;10399675;28;20234;-81
2022/09/16 16:29:41;;;;;;;0.00;0.00;;;;;;;;;;10376879;28;20349;-81
2022/09/16 16:34:43;;;;;;;0.00;0.00;;;;;;;;;;10382257;28;20369;-81
2022/09/16 16:39:44;;;;;;;8.98;0.22;;;;;;;;;;10366069;28;20226;-81
2022/09/16 16:44:46;;;;;;;0.17;0.17;;;;;;;;;;10392140;28;20218;-81
2022/09/16 16:49:49;;;;;;;0.00;0.00;;;;;;;;;;10365381;28;20220;-82
2022/09/16 16:54:50;;;;;;;0.00;0.00;;;;;;;;;;10384441;28;20215;-81
2022/09/16 16:59:51;;;;;;;0.00;0.00;;;;;;;;;;10375674;28;20218;-82
2022/09/16 17:04:52;;;;;;;0.00;0.00;;;;;;;;;;10403931;28;20251;-80
2022/09/16 17:09:54;;;;;;;2.08;0.28;;;;;;;;;;10382276;28;20235;-82
2022/09/16 17:14:55;;;;;;;0.00;0.00;;;;;;;;;;10399927;28;20219;-82
2022/09/16 17:19:56;;;;;;;0.28;0.28;;;;;;;;;;10400608;28;20224;-81
2022/09/16 17:24:57;;;;;;;0.55;0.13;;;;;;;;;;10395382;28;20226;-81
2022/09/16 17:30:00;;;;;;;0.00;0.00;;;;;;;;;;10392203;28;20208;-83
2022/09/16 17:35:01;;;;;;;0.00;0.00;;;;;;;;;;10373576;28;20235;-81
2022/09/16 17:40:03;;;;;;;0.00;0.00;;;;;;;;;;10377593;28;20241;-80
2022/09/16 17:45:05;;;;;;;0.20;0.20;;;;;;;;;;10370661;28;20223;-80
2022/09/16 17:50:06;;;;;;;0.00;0.00;;;;;;;;;;10377380;28;20247;-81
2022/09/16 17:55:07;;;;;;;0.00;0.00;;;;;;;;;;10366765;28;20205;-81
2022/09/16 18:00:09;;;;;;;0.00;0.00;;;;;;;;;;10393814;28;20199;-84
2022/09/16 18:05:16;;;;;;;0.08;0.08;;;;;;;;;;10390288;28;20205;-82
2022/09/16 18:10:17;;;;;;;0.00;0.00;;;;;;;;;;10379362;28;20220;-81
2022/09/16 18:15:18;;;;;;;0.10;0.10;;;;;;;;;;10369863;28;20219;-81
2022/09/16 18:20:19;;;;;;;0.00;0.00;;;;;;;;;;10378525;28;20217;-82
2022/09/16 18:25:20;;;;;;;0.00;0.00;;;;;;;;;;10380884;28;20341;-81
2022/09/16 18:30:23;;;;;;;0.10;0.10;;;;;;;;;;10375711;28;21227;-81
2022/09/16 18:35:25;;;;;;;0.00;0.00;;;;;;;;;;10366656;28;20301;-80
2022/09/16 18:40:26;;;;;;;0.00;0.00;;;;;;;;;;10393876;28;20871;-83
2022/09/16 18:45:27;;;;;;;0.00;0.00;;;;;;;;;;10363509;28;20222;-81
2022/09/16 18:50:28;;;;;;;0.60;0.55;;;;;;;;;;10370959;28;21556;-83
2022/09/16 18:55:29;;;;;;;0.10;0.10;;;;;;;;;;10389643;28;20277;-82
2022/09/16 19:00:30;;;;;;;0.00;0.00;;;;;;;;;;10380243;28;20234;-83
2022/09/16 19:05:31;;;;;;;0.00;0.00;;;;;;;;;;10383818;28;20733;-81
2022/09/16 19:10:33;;;;;;;0.10;0.10;;;;;;;;;;10345749;28;20247;-80
2022/09/16 19:15:35;;;;;;;0.00;0.00;;;;;;;;;;10378624;28;20222;-83
2022/09/16 19:20:41;;;;;;;0.10;0.10;;;;;;;;;;10396752;28;20227;-82
2022/09/16 19:25:42;;;;;;;0.20;0.20;;;;;;;;;;10358084;28;20231;-82
2022/09/16 19:30:43;;;;;;;0.22;0.22;;;;;;;;;;10408584;28;20215;-81
2022/09/16 19:35:45;;;;;;;0.00;0.00;;;;;;;;;;10390221;28;20227;-85
2022/09/16 19:40:46;;;;;;;0.00;0.00;;;;;;;;;;10370873;28;20245;-80
2022/09/16 19:45:47;;;;;;;0.00;0.00;;;;;;;;;;10398906;28;20226;-81
2022/09/16 19:50:52;;;;;;;0.00;0.00;;;;;;;;;;10397263;28;20246;-80
2022/09/16 19:56:03;;;;;;;0.00;0.00;;;;;;;;;;10405885;28;20207;-81
2022/09/16 20:01:06;;;;;;;0.00;0.00;;;;;;;;;;10394440;28;20880;-82
2022/09/16 20:06:08;;;;;;;0.05;0.05;;;;;;;;;;10393505;28;20237;-84
2022/09/16 20:11:11;;;;;;;0.00;0.00;;;;;;;;;;10398182;28;20227;-82
2022/09/16 20:16:12;;;;;;;0.00;0.00;;;;;;;;;;10400519;28;20228;-80
2022/09/16 20:21:15;;;;;;;0.00;0.00;;;;;;;;;;10374192;28;20272;-82
2022/09/16 20:26:20;;;;;;;0.00;0.00;;;;;;;;;;10398950;28;20278;-80
2022/09/16 20:31:26;;;;;;;1.30;0.80;;;;;;;;;;10406274;28;20267;-81
2022/09/16 20:36:31;;;;;;;0.10;0.10;;;;;;;;;;10381135;28;20223;-81
2022/09/16 20:41:33;;;;;;;0.10;0.10;;;;;;;;;;10387284;28;20250;-81
2022/09/16 20:46:36;;;;;;;0.05;0.05;;;;;;;;;;10380241;28;20239;-81
2022/09/16 20:51:37;;;;;;;0.00;0.00;;;;;;;;;;10393134;28;20218;-81
2022/09/16 20:56:39;;;;;;;0.00;0.00;;;;;;;;;;10377915;28;20219;-82
2022/09/16 21:01:40;;;;;;;0.10;0.10;;;;;;;;;;10395767;28;20218;-81
2022/09/16 21:06:42;;;;;;;0.00;0.00;;;;;;;;;;10379931;28;20239;-80
2022/09/16 21:11:43;;;;;;;0.20;0.20;;;;;;;;;;10316346;28;20234;-82
2022/09/16 21:16:45;;;;;;;7.20;0.32;;;;;;;;;;10329463;28;20278;-80
2022/09/16 21:21:47;;;;;;;0.10;0.10;;;;;;;;;;10335067;28;20229;-81
2022/09/16 21:26:48;;;;;;;0.00;0.00;;;;;;;;;;10336653;28;20643;-81
2022/09/16 21:31:50;;;;;;;0.00;0.00;;;;;;;;;;10333652;28;20940;-81
2022/09/16 21:36:51;;;;;;;0.00;0.00;;;;;;;;;;10310017;28;20456;-82
2022/09/16 21:41:52;;;;;;;0.20;0.20;;;;;;;;;;10348704;28;20295;-85
2022/09/16 21:46:54;;;;;;;0.00;0.00;;;;;;;;;;10338323;28;20220;-82
2022/09/16 21:51:56;;;;;;;0.00;0.00;;;;;;;;;;10322021;28;20224;-81
2022/09/16 21:56:58;;;;;;;0.05;0.05;;;;;;;;;;10334450;28;20216;-82
2022/09/16 22:01:59;;;;;;;0.00;0.00;;;;;;;;;;10334933;28;20220;-82
2022/09/16 22:07:00;;;;;;;0.00;0.00;;;;;;;;;;10319075;28;21038;-81
2022/09/16 22:12:02;;;;;;;0.10;0.10;;;;;;;;;;10388251;28;20215;-82
2022/09/16 22:17:03;;;;;;;0.10;0.10;;;;;;;;;;10392447;28;20214;-81
2022/09/16 22:22:04;;;;;;;0.45;0.45;;;;;;;;;;10384568;28;20230;-81
2022/09/16 22:27:05;;;;;;;0.05;0.05;;;;;;;;;;10373331;28;20693;-81
2022/09/16 22:32:06;;;;;;;0.20;0.20;;;;;;;;;;10401976;28;20222;-83
2022/09/16 22:37:08;;;;;;;0.38;0.38;;;;;;;;;;10377703;28;20223;-82
2022/09/16 22:42:09;;;;;;;0.00;0.00;;;;;;;;;;10390030;28;20219;-81
2022/09/16 22:47:10;;;;;;;0.32;0.32;;;;;;;;;;10365530;28;20215;-81
2022/09/16 22:52:11;;;;;;;0.00;0.00;;;;;;;;;;10382169;28;21019;-81
2022/09/16 22:57:12;;;;;;;0.00;0.00;;;;;;;;;;10399117;28;20264;-82
2022/09/16 23:02:13;;;;;;;0.00;0.00;;;;;;;;;;10395792;28;20711;-81
2022/09/16 23:07:14;;;;;;;0.00;0.00;;;;;;;;;;10394542;28;20259;-82
2022/09/16 23:12:15;;;;;;;8.38;0.55;;;;;;;;;;10403347;28;20297;-82
2022/09/16 23:17:16;;;;;;;0.20;0.20;;;;;;;;;;10398536;28;20215;-82
2022/09/16 23:22:17;;;;;;;0.00;0.00;;;;;;;;;;10366981;28;20796;-81
2022/09/16 23:27:18;;;;;;;0.00;0.00;;;;;;;;;;10390225;28;20212;-80
2022/09/16 23:32:19;;;;;;;0.00;0.00;;;;;;;;;;10401377;28;20260;-82
2022/09/16 23:37:20;;;;;;;0.08;0.08;;;;;;;;;;10394706;28;20219;-83
2022/09/16 23:42:22;;;;;;;0.00;0.00;;;;;;;;;;10363705;28;21059;-82
2022/09/16 23:47:23;;;;;;;0.00;0.00;;;;;;;;;;10397930;28;20211;-81
2022/09/16 23:52:24;;;;;;;0.10;0.10;;;;;;;;;;10387261;28;20993;-83
2022/09/16 23:57:25;;;;;;;0.20;0.20;;;;;;;;;;10423720;28;20223;-81
